createdAt,value
2022-09-23T00:02:23.444Z,12.82
2022-09-23T00:07:25.576Z,12.88
2022-09-23T00:12:27.879Z,12.80
2022-09-23T00:17:31.167Z,13.33
2022-09-23T00:22:33.872Z,12.93
2022-09-23T00:27:37.081Z,12.87
2022-09-23T00:32:40.311Z,12.93
2022-09-23T00:37:42.543Z,12.92
2022-09-23T00:42:52.241Z,13.07
2022-09-23T00:48:02.002Z,12.97
2022-09-23T00:53:10.850Z,12.88
2022-09-23T00:58:17.923Z,12.99
2022-09-23T01:03:22.884Z,12.91
2022-09-23T01:08:26.921Z,12.96
2022-09-23T01:13:33.901Z,12.97
2022-09-23T01:19:09.612Z,13.18
2022-09-23T01:24:37.906Z,13.21
2022-09-23T01:29:52.070Z,13.15
2022-09-23T01:35:06.691Z,12.99
2022-09-23T01:40:21.122Z,13.08
2022-09-23T01:45:34.484Z,13.09
2022-09-23T01:50:57.968Z,13.06
2022-09-23T01:56:21.999Z,13.05
2022-09-23T02:01:33.136Z,13.14
2022-09-23T02:06:46.611Z,13.23
2022-09-23T02:11:52.561Z,13.06
2022-09-23T02:16:58.263Z,13.16
2022-09-23T02:22:12.467Z,13.09
2022-09-23T02:27:30.596Z,13.10
2022-09-23T02:32:59.341Z,13.20
2022-09-23T02:38:16.661Z,13.20
2022-09-23T02:43:52.418Z,13.23
2022-09-23T02:49:00.984Z,13.08
2022-09-23T02:54:06.565Z,13.00
2022-09-23T02:59:10.058Z,13.01
2022-09-23T03:04:20.980Z,13.12
2022-09-23T03:09:30.818Z,13.05
2022-09-23T03:14:44.578Z,13.13
2022-09-23T03:19:55.453Z,13.15
2022-09-23T03:25:04.129Z,13.17
2022-09-23T03:30:07.845Z,13.14
2022-09-23T03:35:10.416Z,13.14
2022-09-23T03:40:32.589Z,13.21
2022-09-23T03:45:35.251Z,13.64
2022-09-23T03:50:37.409Z,13.22
2022-09-23T03:55:39.567Z,13.22
2022-09-23T04:00:42.433Z,13.26
2022-09-23T04:05:45.364Z,13.32
2022-09-23T04:10:49.044Z,13.37
2022-09-23T04:15:52.768Z,13.51
2022-09-23T04:20:58.841Z,14.17
2022-09-23T04:26:00.867Z,13.89
2022-09-23T04:31:06.418Z,14.55
2022-09-23T04:36:08.628Z,14.01
2022-09-23T04:41:10.956Z,14.13
2022-09-23T04:46:15.342Z,14.27
2022-09-23T04:51:20.379Z,14.45
2022-09-23T04:56:26.230Z,14.59
2022-09-23T05:01:31.078Z,14.67
2022-09-23T05:06:35.048Z,14.73
2022-09-23T05:11:37.128Z,14.82
2022-09-23T05:16:39.347Z,15.31
2022-09-23T05:21:41.538Z,15.98
2022-09-23T05:26:43.627Z,16.57
2022-09-23T05:31:45.746Z,16.94
2022-09-23T05:36:47.816Z,17.23
2022-09-23T05:41:49.810Z,18.02
2022-09-23T05:46:52.152Z,19.33
2022-09-23T05:51:54.234Z,20.95
2022-09-23T05:56:57.679Z,21.72
2022-09-23T06:02:01.967Z,21.24
2022-09-23T06:07:04.110Z,20.47
2022-09-23T06:12:06.570Z,19.74
2022-09-23T06:17:08.615Z,19.04
2022-09-23T06:22:11.935Z,18.59
2022-09-23T06:27:14.008Z,18.00
2022-09-23T06:32:16.732Z,17.22
2022-09-23T06:37:20.649Z,16.59
2022-09-23T06:42:23.108Z,16.46
2022-09-23T06:47:25.195Z,16.48
2022-09-23T06:52:28.678Z,16.49
2022-09-23T06:57:31.721Z,16.58
2022-09-23T07:02:33.958Z,16.73
2022-09-23T07:07:37.517Z,17.15
2022-09-23T07:12:39.867Z,18.48
2022-09-23T07:17:43.085Z,19.75
2022-09-23T07:22:52.610Z,20.20
2022-09-23T07:27:56.352Z,19.41
2022-09-23T07:32:58.467Z,18.66
2022-09-23T07:38:00.729Z,18.16
2022-09-23T07:43:04.717Z,17.89
2022-09-23T07:48:06.838Z,17.70
2022-09-23T07:53:09.176Z,17.62
2022-09-23T07:58:11.219Z,17.64
2022-09-23T08:03:14.899Z,17.89
2022-09-23T08:08:17.404Z,18.20
2022-09-23T08:13:19.485Z,18.50
2022-09-23T08:18:21.629Z,18.85
2022-09-23T08:23:23.822Z,19.13
2022-09-23T08:28:26.217Z,18.98
2022-09-23T08:33:28.524Z,18.58
2022-09-23T08:38:30.615Z,18.36
2022-09-23T08:43:34.780Z,19.65
2022-09-23T08:48:43.275Z,21.93
2022-09-23T08:53:46.929Z,23.12
2022-09-23T08:59:04.376Z,23.30
2022-09-23T09:04:27.783Z,22.22
2022-09-23T09:09:36.355Z,20.67
2022-09-23T09:14:57.477Z,20.25
2022-09-23T09:20:25.783Z,19.58
2022-09-23T09:25:43.170Z,19.17
2022-09-23T09:30:49.213Z,19.02
2022-09-23T09:36:09.008Z,20.55
2022-09-23T09:41:17.919Z,22.20
2022-09-23T09:46:26.689Z,22.32
2022-09-23T09:51:29.606Z,21.31
2022-09-23T09:56:36.150Z,20.52
2022-09-23T10:01:38.411Z,19.65
2022-09-23T10:06:41.918Z,19.39
2022-09-23T10:12:05.914Z,19.96
2022-09-23T10:17:15.578Z,20.56
2022-09-23T10:22:24.222Z,21.29
2022-09-23T10:27:33.352Z,21.74
2022-09-23T10:32:38.828Z,21.40
2022-09-23T10:37:49.500Z,21.53
2022-09-23T10:43:15.855Z,21.13
2022-09-23T10:48:24.866Z,20.17
2022-09-23T10:53:52.174Z,19.80
2022-09-23T10:59:30.320Z,19.56
2022-09-23T11:04:52.929Z,19.85
2022-09-23T11:10:29.172Z,21.15
2022-09-23T11:15:56.186Z,21.79
2022-09-23T11:21:30.484Z,21.38
2022-09-23T11:26:48.140Z,20.40
2022-09-23T11:32:11.785Z,20.30
2022-09-23T11:37:43.115Z,20.76
2022-09-23T11:42:59.954Z,23.31
2022-09-23T11:48:05.514Z,26.90
2022-09-23T11:53:32.496Z,30.10
2022-09-23T11:58:53.533Z,29.88
2022-09-23T12:04:19.044Z,27.83
2022-09-23T12:09:54.107Z,25.24
2022-09-23T12:15:17.587Z,22.89
2022-09-23T12:20:45.540Z,21.26
2022-09-23T12:25:57.167Z,19.96
2022-09-23T12:31:02.186Z,19.14
2022-09-23T12:36:07.971Z,18.93
2022-09-23T12:41:39.071Z,18.94
2022-09-23T12:46:46.044Z,18.75
2022-09-23T12:52:17.451Z,18.86
2022-09-23T12:57:34.876Z,18.57
2022-09-23T13:03:10.379Z,18.20
2022-09-23T13:08:17.260Z,17.82
2022-09-23T13:13:31.761Z,17.81
2022-09-23T13:18:54.187Z,17.86
2022-09-23T13:24:15.087Z,17.83
2022-09-23T13:29:23.625Z,17.58
2022-09-23T13:34:32.151Z,17.42
2022-09-23T13:39:34.772Z,17.32
2022-09-23T13:44:40.748Z,17.40
2022-09-23T13:49:43.601Z,17.24
2022-09-23T13:54:50.314Z,17.24
2022-09-23T13:59:53.588Z,16.95
2022-09-23T14:04:59.051Z,16.78
2022-09-23T14:10:01.518Z,16.45
2022-09-23T14:15:03.954Z,16.19
2022-09-23T14:20:17.417Z,16.38
2022-09-23T14:25:19.950Z,16.10
2022-09-23T14:30:22.100Z,15.91
2022-09-23T14:35:38.087Z,15.75
2022-09-23T14:40:49.118Z,15.68
2022-09-23T14:45:56.189Z,15.44
2022-09-23T14:51:01.094Z,15.25
2022-09-23T14:56:06.133Z,15.19
2022-09-23T15:01:33.107Z,15.21
2022-09-23T15:06:38.099Z,14.89
2022-09-23T15:11:40.883Z,14.69
2022-09-23T15:16:43.369Z,14.63
2022-09-23T15:21:47.102Z,14.57
2022-09-23T15:26:51.387Z,14.47
2022-09-23T15:31:53.860Z,14.44
2022-09-23T15:36:56.832Z,14.46
2022-09-23T15:42:01.592Z,14.30
2022-09-23T15:47:04.707Z,14.29
2022-09-23T15:52:09.816Z,14.13
2022-09-23T15:57:12.175Z,14.09
2022-09-23T16:02:21.512Z,14.12
2022-09-23T16:07:24.340Z,13.94
2022-09-23T16:12:26.667Z,13.88
2022-09-23T16:17:29.432Z,13.84
2022-09-23T16:22:31.812Z,13.82
2022-09-23T16:27:34.377Z,13.82
2022-09-23T16:32:36.902Z,13.81
2022-09-23T16:37:39.097Z,13.80
2022-09-23T16:42:41.467Z,13.80
2022-09-23T16:47:49.080Z,13.85
2022-09-23T16:52:56.386Z,13.77
2022-09-23T16:57:58.747Z,13.68
2022-09-23T17:03:19.817Z,13.60
2022-09-23T17:08:22.137Z,13.50
2022-09-23T17:13:25.821Z,13.44
2022-09-23T17:18:29.750Z,13.36
2022-09-23T17:23:33.542Z,13.24
2022-09-23T17:28:36.020Z,13.06
2022-09-23T17:33:38.387Z,13.06
2022-09-23T17:38:43.451Z,13.04
2022-09-23T17:43:46.806Z,12.86
2022-09-23T17:48:49.021Z,12.81
2022-09-23T17:53:51.548Z,12.72
2022-09-23T17:58:54.308Z,12.68
2022-09-23T18:04:01.547Z,12.73
2022-09-23T18:09:06.688Z,12.71
2022-09-23T18:14:22.773Z,12.85
2022-09-23T18:19:25.133Z,12.80
2022-09-23T18:24:32.879Z,12.71
2022-09-23T18:29:35.877Z,12.87
2022-09-23T18:34:38.392Z,12.89
2022-09-23T18:39:41.175Z,12.77
2022-09-23T18:44:43.292Z,12.88
2022-09-23T18:50:03.650Z,13.35
2022-09-23T18:55:06.559Z,12.92
2022-09-23T19:00:10.071Z,12.89
2022-09-23T19:05:12.167Z,12.79
2022-09-23T19:10:14.595Z,12.74
2022-09-23T19:15:16.960Z,12.72
2022-09-23T19:20:19.098Z,12.64
2022-09-23T19:25:21.071Z,13.03
2022-09-23T19:30:23.344Z,12.56
2022-09-23T19:35:25.806Z,12.49
2022-09-23T19:40:31.509Z,12.45
2022-09-23T19:45:34.400Z,12.45
2022-09-23T19:50:41.586Z,12.58
2022-09-23T19:55:44.372Z,12.50
2022-09-23T20:00:46.552Z,12.49
2022-09-23T20:05:56.685Z,12.94
2022-09-23T20:10:58.717Z,12.59
2022-09-23T20:16:02.277Z,12.56
2022-09-23T20:21:05.710Z,12.53
2022-09-23T20:26:27.218Z,12.50
2022-09-23T20:31:29.534Z,12.50
2022-09-23T20:36:33.009Z,12.45
2022-09-23T20:41:37.753Z,12.44
2022-09-23T20:46:44.110Z,12.46
2022-09-23T20:51:50.358Z,12.48
2022-09-23T20:56:53.546Z,12.48
2022-09-23T21:01:58.242Z,12.51
2022-09-23T21:07:01.491Z,12.51
2022-09-23T21:12:03.707Z,12.42
2022-09-23T21:17:05.783Z,12.58
2022-09-23T21:22:07.677Z,13.01
2022-09-23T21:27:09.692Z,12.61
2022-09-23T21:32:11.701Z,12.99
2022-09-23T21:37:13.785Z,12.56
2022-09-23T21:42:15.727Z,12.90
2022-09-23T21:47:18.218Z,12.42
2022-09-23T21:52:20.286Z,12.30
2022-09-23T21:57:25.922Z,12.68
2022-09-23T22:02:27.988Z,12.22
2022-09-23T22:07:29.944Z,12.59
2022-09-23T22:12:33.634Z,12.17
2022-09-23T22:17:35.789Z,12.05
2022-09-23T22:22:37.764Z,12.46
2022-09-23T22:27:59.823Z,12.04
2022-09-23T22:33:04.549Z,12.00
2022-09-23T22:38:06.694Z,11.97
2022-09-23T22:43:08.970Z,12.35
2022-09-23T22:48:11.074Z,11.96
2022-09-23T22:53:13.989Z,11.91
2022-09-23T22:58:31.611Z,11.89
2022-09-23T23:03:36.368Z,11.91
2022-09-23T23:08:38.916Z,11.93
2022-09-23T23:13:41.934Z,11.87
2022-09-23T23:18:45.142Z,11.88
2022-09-23T23:23:50.060Z,11.89
2022-09-23T23:28:54.011Z,11.87
2022-09-23T23:33:56.184Z,11.87
2022-09-23T23:38:58.634Z,11.83
2022-09-23T23:44:01.552Z,11.81
2022-09-23T23:49:04.698Z,11.81
2022-09-23T23:54:07.285Z,11.78
2022-09-23T23:59:09.370Z,11.77
